sensor_id;sensor_type;location;lat;lon;timestamp;temperature;humidity
15357;DHT22;7778;48.792;9.260;2023-03-25T00:02:36;9.60;99.90
15357;DHT22;7778;48.792;9.260;2023-03-25T00:05:22;9.60;99.90
15357;DHT22;7778;48.792;9.260;2023-03-25T00:08:09;9.50;99.90
15357;DHT22;7778;48.792;9.260;2023-03-25T00:10:57;9.60;99.90
15357;DHT22;7778;48.792;9.260;2023-03-25T00:13:43;9.40;99.90
15357;DHT22;7778;48.792;9.260;2023-03-25T00:16:29;9.30;99.90
15357;DHT22;7778;48.792;9.260;2023-03-25T00:19:15;9.00;99.90
15357;DHT22;7778;48.792;9.260;2023-03-25T00:22:00;8.90;99.90
15357;DHT22;7778;48.792;9.260;2023-03-25T00:24:47;9.00;99.90
15357;DHT22;7778;48.792;9.260;2023-03-25T00:27:34;8.90;99.90
15357;DHT22;7778;48.792;9.260;2023-03-25T00:30:19;9.00;99.90
15357;DHT22;7778;48.792;9.260;2023-03-25T00:33:05;9.00;99.90
15357;DHT22;7778;48.792;9.260;2023-03-25T00:35:54;9.00;99.90
15357;DHT22;7778;48.792;9.260;2023-03-25T00:38:42;9.00;99.90
15357;DHT22;7778;48.792;9.260;2023-03-25T00:41:30;9.10;99.90
15357;DHT22;7778;48.792;9.260;2023-03-25T00:44:18;8.90;99.90
15357;DHT22;7778;48.792;9.260;2023-03-25T00:47:05;8.90;99.90
15357;DHT22;7778;48.792;9.260;2023-03-25T00:49:51;9.10;99.90
15357;DHT22;7778;48.792;9.260;2023-03-25T00:52:36;9.10;99.90
15357;DHT22;7778;48.792;9.260;2023-03-25T00:55:22;9.00;99.90
15357;DHT22;7778;48.792;9.260;2023-03-25T00:58:09;9.10;99.90
15357;DHT22;7778;48.792;9.260;2023-03-25T01:00:55;9.00;99.90
15357;DHT22;7778;48.792;9.260;2023-03-25T01:03:41;9.10;99.90
15357;DHT22;7778;48.792;9.260;2023-03-25T01:06:31;9.00;99.90
15357;DHT22;7778;48.792;9.260;2023-03-25T01:09:19;8.60;99.90
15357;DHT22;7778;48.792;9.260;2023-03-25T01:12:06;8.70;99.90
15357;DHT22;7778;48.792;9.260;2023-03-25T01:14:53;8.50;99.90
15357;DHT22;7778;48.792;9.260;2023-03-25T01:17:41;8.60;99.90
15357;DHT22;7778;48.792;9.260;2023-03-25T01:20:26;8.70;99.90
15357;DHT22;7778;48.792;9.260;2023-03-25T01:23:14;8.70;99.90
15357;DHT22;7778;48.792;9.260;2023-03-25T01:26:04;8.70;99.90
15357;DHT22;7778;48.792;9.260;2023-03-25T01:28:53;8.60;99.90
15357;DHT22;7778;48.792;9.260;2023-03-25T01:31:40;8.60;99.90
15357;DHT22;7778;48.792;9.260;2023-03-25T01:34:28;8.50;99.90
15357;DHT22;7778;48.792;9.260;2023-03-25T01:37:16;8.50;99.90
15357;DHT22;7778;48.792;9.260;2023-03-25T01:40:02;8.50;99.90
15357;DHT22;7778;48.792;9.260;2023-03-25T01:42:50;8.40;99.90
15357;DHT22;7778;48.792;9.260;2023-03-25T01:45:38;8.40;99.90
15357;DHT22;7778;48.792;9.260;2023-03-25T01:48:32;8.40;99.90
15357;DHT22;7778;48.792;9.260;2023-03-25T01:51:22;8.30;99.90
15357;DHT22;7778;48.792;9.260;2023-03-25T01:54:12;8.40;99.90
15357;DHT22;7778;48.792;9.260;2023-03-25T01:57:02;8.50;99.90
15357;DHT22;7778;48.792;9.260;2023-03-25T01:59:49;8.50;99.90
15357;DHT22;7778;48.792;9.260;2023-03-25T02:02:36;8.50;99.90
15357;DHT22;7778;48.792;9.260;2023-03-25T02:05:29;8.60;99.90
15357;DHT22;7778;48.792;9.260;2023-03-25T02:08:19;8.60;99.90
15357;DHT22;7778;48.792;9.260;2023-03-25T02:11:08;8.50;99.90
15357;DHT22;7778;48.792;9.260;2023-03-25T02:13:55;8.60;99.90
15357;DHT22;7778;48.792;9.260;2023-03-25T02:16:47;8.50;99.90
15357;DHT22;7778;48.792;9.260;2023-03-25T02:20:14;8.50;99.90
15357;DHT22;7778;48.792;9.260;2023-03-25T02:23:45;8.50;99.90
15357;DHT22;7778;48.792;9.260;2023-03-25T02:27:08;8.50;99.90
15357;DHT22;7778;48.792;9.260;2023-03-25T02:34:00;8.40;99.90
15357;DHT22;7778;48.792;9.260;2023-03-25T02:40:50;8.60;99.90
15357;DHT22;7778;48.792;9.260;2023-03-25T02:43:48;8.60;99.90
15357;DHT22;7778;48.792;9.260;2023-03-25T02:46:38;8.50;99.90
15357;DHT22;7778;48.792;9.260;2023-03-25T02:49:30;8.50;99.90
15357;DHT22;7778;48.792;9.260;2023-03-25T02:52:20;8.50;99.90
15357;DHT22;7778;48.792;9.260;2023-03-25T02:55:12;8.60;99.90
15357;DHT22;7778;48.792;9.260;2023-03-25T02:58:01;8.50;99.90
15357;DHT22;7778;48.792;9.260;2023-03-25T03:00:50;8.50;99.90
15357;DHT22;7778;48.792;9.260;2023-03-25T03:03:39;8.50;99.90
15357;DHT22;7778;48.792;9.260;2023-03-25T03:06:28;8.20;99.90
15357;DHT22;7778;48.792;9.260;2023-03-25T03:09:24;8.00;99.90
15357;DHT22;7778;48.792;9.260;2023-03-25T03:12:34;7.70;99.90
15357;DHT22;7778;48.792;9.260;2023-03-25T03:15:36;7.90;99.90
15357;DHT22;7778;48.792;9.260;2023-03-25T03:18:34;7.80;99.90
15357;DHT22;7778;48.792;9.260;2023-03-25T03:21:33;7.90;99.90
15357;DHT22;7778;48.792;9.260;2023-03-25T03:24:26;8.00;99.90
15357;DHT22;7778;48.792;9.260;2023-03-25T03:27:17;7.90;99.90
15357;DHT22;7778;48.792;9.260;2023-03-25T03:30:12;7.70;99.90
15357;DHT22;7778;48.792;9.260;2023-03-25T03:33:07;7.90;99.90
15357;DHT22;7778;48.792;9.260;2023-03-25T03:35:59;7.50;99.90
15357;DHT22;7778;48.792;9.260;2023-03-25T03:38:49;7.60;99.90
15357;DHT22;7778;48.792;9.260;2023-03-25T03:41:39;7.80;99.90
15357;DHT22;7778;48.792;9.260;2023-03-25T03:44:30;7.90;99.90
15357;DHT22;7778;48.792;9.260;2023-03-25T03:47:22;8.00;99.90
15357;DHT22;7778;48.792;9.260;2023-03-25T03:50:14;7.90;99.90
15357;DHT22;7778;48.792;9.260;2023-03-25T03:53:07;7.90;99.90
15357;DHT22;7778;48.792;9.260;2023-03-25T03:55:58;7.80;99.90
15357;DHT22;7778;48.792;9.260;2023-03-25T03:58:52;7.90;99.90
15357;DHT22;7778;48.792;9.260;2023-03-25T04:01:44;7.80;99.90
15357;DHT22;7778;48.792;9.260;2023-03-25T04:04:38;7.70;99.90
15357;DHT22;7778;48.792;9.260;2023-03-25T04:07:32;7.60;99.90
15357;DHT22;7778;48.792;9.260;2023-03-25T04:10:25;7.60;99.90
15357;DHT22;7778;48.792;9.260;2023-03-25T04:13:19;7.60;99.90
15357;DHT22;7778;48.792;9.260;2023-03-25T04:16:10;7.70;99.90
15357;DHT22;7778;48.792;9.260;2023-03-25T04:18:57;7.60;99.90
15357;DHT22;7778;48.792;9.260;2023-03-25T04:21:44;7.60;99.90
15357;DHT22;7778;48.792;9.260;2023-03-25T04:24:31;7.50;99.90
15357;DHT22;7778;48.792;9.260;2023-03-25T04:27:17;7.50;99.90
15357;DHT22;7778;48.792;9.260;2023-03-25T04:30:07;7.50;99.90
15357;DHT22;7778;48.792;9.260;2023-03-25T04:32:53;7.50;99.90
15357;DHT22;7778;48.792;9.260;2023-03-25T04:35:40;7.60;99.90
15357;DHT22;7778;48.792;9.260;2023-03-25T04:38:27;7.40;99.90
15357;DHT22;7778;48.792;9.260;2023-03-25T04:41:12;7.50;99.90
15357;DHT22;7778;48.792;9.260;2023-03-25T04:43:58;7.70;99.90
15357;DHT22;7778;48.792;9.260;2023-03-25T04:46:44;7.40;99.90
15357;DHT22;7778;48.792;9.260;2023-03-25T04:49:30;7.30;99.90
15357;DHT22;7778;48.792;9.260;2023-03-25T04:52:15;7.30;99.90
15357;DHT22;7778;48.792;9.260;2023-03-25T04:55:03;7.20;99.90
15357;DHT22;7778;48.792;9.260;2023-03-25T04:57:51;7.10;99.90
15357;DHT22;7778;48.792;9.260;2023-03-25T05:00:37;6.90;99.90
15357;DHT22;7778;48.792;9.260;2023-03-25T05:03:23;6.90;99.90
15357;DHT22;7778;48.792;9.260;2023-03-25T05:06:09;7.20;99.90
15357;DHT22;7778;48.792;9.260;2023-03-25T05:08:54;7.10;99.90
15357;DHT22;7778;48.792;9.260;2023-03-25T05:11:42;7.10;99.90
15357;DHT22;7778;48.792;9.260;2023-03-25T05:14:27;6.80;99.90
15357;DHT22;7778;48.792;9.260;2023-03-25T05:17:13;6.90;99.90
15357;DHT22;7778;48.792;9.260;2023-03-25T05:19:58;6.80;99.90
15357;DHT22;7778;48.792;9.260;2023-03-25T05:22:44;7.10;99.90
15357;DHT22;7778;48.792;9.260;2023-03-25T05:25:29;7.10;99.90
15357;DHT22;7778;48.792;9.260;2023-03-25T05:28:18;7.10;99.90
15357;DHT22;7778;48.792;9.260;2023-03-25T05:31:04;7.20;99.90
15357;DHT22;7778;48.792;9.260;2023-03-25T05:33:51;7.30;99.90
15357;DHT22;7778;48.792;9.260;2023-03-25T05:36:38;7.30;99.90
15357;DHT22;7778;48.792;9.260;2023-03-25T05:39:25;7.50;99.90
15357;DHT22;7778;48.792;9.260;2023-03-25T05:42:10;7.50;99.90
15357;DHT22;7778;48.792;9.260;2023-03-25T05:44:57;7.40;99.90
15357;DHT22;7778;48.792;9.260;2023-03-25T05:47:43;7.50;99.90
15357;DHT22;7778;48.792;9.260;2023-03-25T05:50:28;7.60;99.90
15357;DHT22;7778;48.792;9.260;2023-03-25T05:53:14;7.60;99.90
15357;DHT22;7778;48.792;9.260;2023-03-25T05:56:00;7.60;99.90
15357;DHT22;7778;48.792;9.260;2023-03-25T05:58:45;7.70;99.90
15357;DHT22;7778;48.792;9.260;2023-03-25T06:01:35;7.80;99.90
15357;DHT22;7778;48.792;9.260;2023-03-25T06:04:21;7.90;99.90
15357;DHT22;7778;48.792;9.260;2023-03-25T06:07:07;8.00;99.90
15357;DHT22;7778;48.792;9.260;2023-03-25T06:09:56;7.90;99.90
15357;DHT22;7778;48.792;9.260;2023-03-25T06:12:43;7.80;99.90
15357;DHT22;7778;48.792;9.260;2023-03-25T06:15:30;8.00;99.90
15357;DHT22;7778;48.792;9.260;2023-03-25T06:18:23;7.80;99.90
15357;DHT22;7778;48.792;9.260;2023-03-25T06:21:09;7.80;99.90
15357;DHT22;7778;48.792;9.260;2023-03-25T06:23:57;7.80;99.90
15357;DHT22;7778;48.792;9.260;2023-03-25T06:26:44;7.90;99.90
15357;DHT22;7778;48.792;9.260;2023-03-25T06:29:29;8.00;99.90
15357;DHT22;7778;48.792;9.260;2023-03-25T06:32:15;8.00;99.90
15357;DHT22;7778;48.792;9.260;2023-03-25T06:35:02;8.10;99.90
15357;DHT22;7778;48.792;9.260;2023-03-25T06:37:48;8.30;99.90
15357;DHT22;7778;48.792;9.260;2023-03-25T06:40:34;8.50;99.90
15357;DHT22;7778;48.792;9.260;2023-03-25T06:43:21;8.50;99.90
15357;DHT22;7778;48.792;9.260;2023-03-25T06:46:06;8.50;99.90
15357;DHT22;7778;48.792;9.260;2023-03-25T06:48:52;8.70;99.90
15357;DHT22;7778;48.792;9.260;2023-03-25T06:51:39;9.40;99.90
15357;DHT22;7778;48.792;9.260;2023-03-25T06:54:25;9.70;99.90
15357;DHT22;7778;48.792;9.260;2023-03-25T06:57:10;9.70;99.90
15357;DHT22;7778;48.792;9.260;2023-03-25T06:59:56;9.60;99.90
15357;DHT22;7778;48.792;9.260;2023-03-25T07:02:41;9.70;99.90
15357;DHT22;7778;48.792;9.260;2023-03-25T07:05:27;9.70;99.90
15357;DHT22;7778;48.792;9.260;2023-03-25T07:08:14;10.00;99.90
15357;DHT22;7778;48.792;9.260;2023-03-25T07:11:00;9.80;99.90
15357;DHT22;7778;48.792;9.260;2023-03-25T07:13:47;10.00;99.90
15357;DHT22;7778;48.792;9.260;2023-03-25T07:16:36;10.30;99.90
15357;DHT22;7778;48.792;9.260;2023-03-25T07:19:22;10.40;99.90
15357;DHT22;7778;48.792;9.260;2023-03-25T07:22:07;10.40;99.90
15357;DHT22;7778;48.792;9.260;2023-03-25T07:24:54;10.10;99.90
15357;DHT22;7778;48.792;9.260;2023-03-25T07:27:41;10.00;99.90
15357;DHT22;7778;48.792;9.260;2023-03-25T07:30:26;10.00;99.90
15357;DHT22;7778;48.792;9.260;2023-03-25T07:33:12;9.80;99.90
15357;DHT22;7778;48.792;9.260;2023-03-25T07:35:57;9.60;99.90
15357;DHT22;7778;48.792;9.260;2023-03-25T07:38:43;10.00;99.90
15357;DHT22;7778;48.792;9.260;2023-03-25T07:41:30;10.30;99.90
15357;DHT22;7778;48.792;9.260;2023-03-25T07:44:16;10.50;99.90
15357;DHT22;7778;48.792;9.260;2023-03-25T07:47:03;10.50;99.90
15357;DHT22;7778;48.792;9.260;2023-03-25T07:49:49;10.80;99.90
15357;DHT22;7778;48.792;9.260;2023-03-25T07:52:34;11.50;99.90
15357;DHT22;7778;48.792;9.260;2023-03-25T07:55:20;12.30;99.90
15357;DHT22;7778;48.792;9.260;2023-03-25T07:58:07;13.40;99.90
15357;DHT22;7778;48.792;9.260;2023-03-25T08:00:55;13.90;99.90
15357;DHT22;7778;48.792;9.260;2023-03-25T08:03:41;13.90;99.90
15357;DHT22;7778;48.792;9.260;2023-03-25T08:06:26;13.50;99.90
15357;DHT22;7778;48.792;9.260;2023-03-25T08:09:12;12.50;99.90
15357;DHT22;7778;48.792;9.260;2023-03-25T08:11:57;12.10;99.90
15357;DHT22;7778;48.792;9.260;2023-03-25T08:14:44;11.80;99.90
15357;DHT22;7778;48.792;9.260;2023-03-25T08:17:30;11.40;99.90
15357;DHT22;7778;48.792;9.260;2023-03-25T08:20:16;11.20;99.90
15357;DHT22;7778;48.792;9.260;2023-03-25T08:23:02;10.90;99.90
15357;DHT22;7778;48.792;9.260;2023-03-25T08:25:53;11.00;99.90
15357;DHT22;7778;48.792;9.260;2023-03-25T08:28:39;11.30;99.90
15357;DHT22;7778;48.792;9.260;2023-03-25T08:31:27;11.20;99.90
15357;DHT22;7778;48.792;9.260;2023-03-25T08:34:14;11.30;99.90
15357;DHT22;7778;48.792;9.260;2023-03-25T08:36:59;11.70;99.90
15357;DHT22;7778;48.792;9.260;2023-03-25T08:39:44;12.10;99.90
15357;DHT22;7778;48.792;9.260;2023-03-25T08:42:35;12.10;99.90
15357;DHT22;7778;48.792;9.260;2023-03-25T08:45:21;12.00;99.90
15357;DHT22;7778;48.792;9.260;2023-03-25T08:48:08;11.80;99.90
15357;DHT22;7778;48.792;9.260;2023-03-25T08:50:56;11.30;99.90
15357;DHT22;7778;48.792;9.260;2023-03-25T08:53:42;10.80;99.90
15357;DHT22;7778;48.792;9.260;2023-03-25T08:56:27;10.50;99.90
15357;DHT22;7778;48.792;9.260;2023-03-25T08:59:14;10.30;99.90
15357;DHT22;7778;48.792;9.260;2023-03-25T09:01:59;10.50;99.90
15357;DHT22;7778;48.792;9.260;2023-03-25T09:04:48;10.30;99.90
15357;DHT22;7778;48.792;9.260;2023-03-25T09:07:34;9.90;99.90
15357;DHT22;7778;48.792;9.260;2023-03-25T09:10:20;9.60;99.90
15357;DHT22;7778;48.792;9.260;2023-03-25T09:13:06;9.40;99.90
15357;DHT22;7778;48.792;9.260;2023-03-25T09:15:51;9.40;99.90
15357;DHT22;7778;48.792;9.260;2023-03-25T09:18:37;9.60;99.90
15357;DHT22;7778;48.792;9.260;2023-03-25T09:21:24;9.90;99.90
15357;DHT22;7778;48.792;9.260;2023-03-25T09:24:09;10.30;99.90
15357;DHT22;7778;48.792;9.260;2023-03-25T09:26:55;11.10;99.90
15357;DHT22;7778;48.792;9.260;2023-03-25T09:29:41;11.90;99.90
15357;DHT22;7778;48.792;9.260;2023-03-25T09:32:26;12.30;99.90
15357;DHT22;7778;48.792;9.260;2023-03-25T09:35:12;12.40;99.90
15357;DHT22;7778;48.792;9.260;2023-03-25T09:37:59;11.80;99.90
15357;DHT22;7778;48.792;9.260;2023-03-25T09:40:45;11.70;99.90
15357;DHT22;7778;48.792;9.260;2023-03-25T09:43:38;11.80;99.90
15357;DHT22;7778;48.792;9.260;2023-03-25T09:46:35;12.00;99.90
15357;DHT22;7778;48.792;9.260;2023-03-25T09:49:26;12.00;99.90
15357;DHT22;7778;48.792;9.260;2023-03-25T09:52:24;12.20;99.90
15357;DHT22;7778;48.792;9.260;2023-03-25T09:55:17;13.70;99.90
15357;DHT22;7778;48.792;9.260;2023-03-25T09:58:23;14.60;99.90
15357;DHT22;7778;48.792;9.260;2023-03-25T10:01:19;14.40;99.90
15357;DHT22;7778;48.792;9.260;2023-03-25T10:04:22;13.70;99.90
15357;DHT22;7778;48.792;9.260;2023-03-25T10:07:41;13.00;99.90
15357;DHT22;7778;48.792;9.260;2023-03-25T10:10:37;12.20;99.90
15357;DHT22;7778;48.792;9.260;2023-03-25T10:13:29;11.50;99.90
15357;DHT22;7778;48.792;9.260;2023-03-25T10:16:26;11.30;99.90
15357;DHT22;7778;48.792;9.260;2023-03-25T10:19:27;11.30;99.90
15357;DHT22;7778;48.792;9.260;2023-03-25T10:22:23;11.40;99.90
15357;DHT22;7778;48.792;9.260;2023-03-25T10:25:14;12.10;99.90
15357;DHT22;7778;48.792;9.260;2023-03-25T10:28:05;14.40;99.90
15357;DHT22;7778;48.792;9.260;2023-03-25T10:30:52;15.40;99.90
15357;DHT22;7778;48.792;9.260;2023-03-25T10:33:41;16.20;99.90
15357;DHT22;7778;48.792;9.260;2023-03-25T10:36:38;16.40;99.90
15357;DHT22;7778;48.792;9.260;2023-03-25T10:39:30;15.70;99.90
15357;DHT22;7778;48.792;9.260;2023-03-25T10:42:25;15.20;99.90
15357;DHT22;7778;48.792;9.260;2023-03-25T10:45:13;16.90;99.90
15357;DHT22;7778;48.792;9.260;2023-03-25T10:48:04;17.40;99.90
15357;DHT22;7778;48.792;9.260;2023-03-25T10:50:59;16.90;99.90
15357;DHT22;7778;48.792;9.260;2023-03-25T10:53:52;15.90;99.90
15357;DHT22;7778;48.792;9.260;2023-03-25T10:56:41;14.60;99.90
15357;DHT22;7778;48.792;9.260;2023-03-25T10:59:32;14.40;99.90
15357;DHT22;7778;48.792;9.260;2023-03-25T11:02:23;14.80;99.90
15357;DHT22;7778;48.792;9.260;2023-03-25T11:05:13;13.90;99.90
15357;DHT22;7778;48.792;9.260;2023-03-25T11:08:02;13.70;99.90
15357;DHT22;7778;48.792;9.260;2023-03-25T11:10:50;14.40;99.90
15357;DHT22;7778;48.792;9.260;2023-03-25T11:13:40;15.90;99.90
15357;DHT22;7778;48.792;9.260;2023-03-25T11:16:30;16.00;99.90
15357;DHT22;7778;48.792;9.260;2023-03-25T11:19:23;16.40;99.90
15357;DHT22;7778;48.792;9.260;2023-03-25T11:22:11;15.40;99.90
15357;DHT22;7778;48.792;9.260;2023-03-25T11:25:03;14.90;99.90
15357;DHT22;7778;48.792;9.260;2023-03-25T11:27:52;14.90;99.90
15357;DHT22;7778;48.792;9.260;2023-03-25T11:31:10;14.50;99.90
15357;DHT22;7778;48.792;9.260;2023-03-25T11:34:04;14.70;99.90
15357;DHT22;7778;48.792;9.260;2023-03-25T11:36:54;14.30;99.90
15357;DHT22;7778;48.792;9.260;2023-03-25T11:39:49;14.20;99.90
15357;DHT22;7778;48.792;9.260;2023-03-25T11:42:39;14.10;99.90
15357;DHT22;7778;48.792;9.260;2023-03-25T11:45:31;13.90;99.90
15357;DHT22;7778;48.792;9.260;2023-03-25T11:48:21;14.20;99.90
15357;DHT22;7778;48.792;9.260;2023-03-25T11:51:11;14.80;99.90
15357;DHT22;7778;48.792;9.260;2023-03-25T11:54:02;15.10;99.90
15357;DHT22;7778;48.792;9.260;2023-03-25T11:56:52;15.30;99.90
15357;DHT22;7778;48.792;9.260;2023-03-25T11:59:43;15.60;99.90
15357;DHT22;7778;48.792;9.260;2023-03-25T12:02:35;15.90;99.90
15357;DHT22;7778;48.792;9.260;2023-03-25T12:05:21;15.90;99.90
15357;DHT22;7778;48.792;9.260;2023-03-25T12:08:12;15.70;99.90
15357;DHT22;7778;48.792;9.260;2023-03-25T12:11:05;15.30;99.90
15357;DHT22;7778;48.792;9.260;2023-03-25T12:14:11;15.10;99.90
15357;DHT22;7778;48.792;9.260;2023-03-25T12:17:14;14.80;99.90
15357;DHT22;7778;48.792;9.260;2023-03-25T12:20:15;15.00;99.90
15357;DHT22;7778;48.792;9.260;2023-03-25T12:23:15;14.90;99.90
15357;DHT22;7778;48.792;9.260;2023-03-25T12:26:09;14.80;99.90
15357;DHT22;7778;48.792;9.260;2023-03-25T12:29:21;14.90;99.90
15357;DHT22;7778;48.792;9.260;2023-03-25T12:32:19;14.70;99.90
15357;DHT22;7778;48.792;9.260;2023-03-25T12:35:22;14.70;99.90
15357;DHT22;7778;48.792;9.260;2023-03-25T12:38:29;15.00;99.90
15357;DHT22;7778;48.792;9.260;2023-03-25T12:41:27;14.80;99.90
15357;DHT22;7778;48.792;9.260;2023-03-25T12:44:22;14.50;99.90
15357;DHT22;7778;48.792;9.260;2023-03-25T12:47:23;14.20;99.90
15357;DHT22;7778;48.792;9.260;2023-03-25T12:50:25;13.90;99.90
15357;DHT22;7778;48.792;9.260;2023-03-25T12:53:37;13.60;99.90
15357;DHT22;7778;48.792;9.260;2023-03-25T12:56:40;13.30;99.90
15357;DHT22;7778;48.792;9.260;2023-03-25T12:59:52;12.30;99.90
15357;DHT22;7778;48.792;9.260;2023-03-25T13:06:31;11.80;99.90
15357;DHT22;7778;48.792;9.260;2023-03-25T13:09:21;12.20;99.90
15357;DHT22;7778;48.792;9.260;2023-03-25T13:12:16;12.60;99.90
15357;DHT22;7778;48.792;9.260;2023-03-25T13:15:17;12.80;99.90
15357;DHT22;7778;48.792;9.260;2023-03-25T13:18:08;12.80;99.90
15357;DHT22;7778;48.792;9.260;2023-03-25T13:21:01;13.00;99.90
15357;DHT22;7778;48.792;9.260;2023-03-25T13:23:53;12.90;99.90
15357;DHT22;7778;48.792;9.260;2023-03-25T13:26:43;12.80;99.90
15357;DHT22;7778;48.792;9.260;2023-03-25T13:29:36;12.70;99.90
15357;DHT22;7778;48.792;9.260;2023-03-25T13:32:27;13.00;99.90
15357;DHT22;7778;48.792;9.260;2023-03-25T13:35:18;13.30;99.90
15357;DHT22;7778;48.792;9.260;2023-03-25T13:38:15;13.50;99.90
15357;DHT22;7778;48.792;9.260;2023-03-25T13:41:13;13.30;99.90
15357;DHT22;7778;48.792;9.260;2023-03-25T13:44:05;13.40;99.90
15357;DHT22;7778;48.792;9.260;2023-03-25T13:47:00;13.30;99.90
15357;DHT22;7778;48.792;9.260;2023-03-25T13:49:51;12.90;99.90
15357;DHT22;7778;48.792;9.260;2023-03-25T13:52:41;12.90;99.90
15357;DHT22;7778;48.792;9.260;2023-03-25T13:55:34;13.00;99.90
15357;DHT22;7778;48.792;9.260;2023-03-25T13:58:52;12.90;99.90
15357;DHT22;7778;48.792;9.260;2023-03-25T14:02:08;13.20;99.90
15357;DHT22;7778;48.792;9.260;2023-03-25T14:05:39;13.40;99.90
15357;DHT22;7778;48.792;9.260;2023-03-25T14:09:03;13.20;99.90
15357;DHT22;7778;48.792;9.260;2023-03-25T14:11:58;12.80;99.90
15357;DHT22;7778;48.792;9.260;2023-03-25T14:14:49;12.70;99.90
15357;DHT22;7778;48.792;9.260;2023-03-25T14:17:38;12.60;99.90
15357;DHT22;7778;48.792;9.260;2023-03-25T14:20:27;12.30;99.90
15357;DHT22;7778;48.792;9.260;2023-03-25T14:23:18;12.20;99.90
15357;DHT22;7778;48.792;9.260;2023-03-25T14:26:08;11.80;99.90
15357;DHT22;7778;48.792;9.260;2023-03-25T14:28:55;11.40;99.90
15357;DHT22;7778;48.792;9.260;2023-03-25T14:31:58;11.30;99.90
15357;DHT22;7778;48.792;9.260;2023-03-25T14:34:48;11.60;99.90
15357;DHT22;7778;48.792;9.260;2023-03-25T14:37:34;11.70;99.90
15357;DHT22;7778;48.792;9.260;2023-03-25T14:40:45;11.80;99.90
15357;DHT22;7778;48.792;9.260;2023-03-25T14:43:34;11.90;99.90
15357;DHT22;7778;48.792;9.260;2023-03-25T14:46:21;12.00;99.90
15357;DHT22;7778;48.792;9.260;2023-03-25T14:49:18;11.90;99.90
15357;DHT22;7778;48.792;9.260;2023-03-25T14:52:11;11.90;99.90
15357;DHT22;7778;48.792;9.260;2023-03-25T14:55:04;12.20;99.90
15357;DHT22;7778;48.792;9.260;2023-03-25T14:57:58;12.20;99.90
15357;DHT22;7778;48.792;9.260;2023-03-25T15:00:52;12.50;99.90
15357;DHT22;7778;48.792;9.260;2023-03-25T15:03:40;12.60;99.90
15357;DHT22;7778;48.792;9.260;2023-03-25T15:06:32;12.60;99.90
15357;DHT22;7778;48.792;9.260;2023-03-25T15:09:20;12.70;99.90
15357;DHT22;7778;48.792;9.260;2023-03-25T15:12:13;12.60;99.90
15357;DHT22;7778;48.792;9.260;2023-03-25T15:15:07;12.70;99.90
15357;DHT22;7778;48.792;9.260;2023-03-25T15:18:08;12.70;99.90
15357;DHT22;7778;48.792;9.260;2023-03-25T15:21:01;12.60;99.90
15357;DHT22;7778;48.792;9.260;2023-03-25T15:23:49;12.60;99.90
15357;DHT22;7778;48.792;9.260;2023-03-25T15:26:38;12.70;99.90
15357;DHT22;7778;48.792;9.260;2023-03-25T15:29:47;12.70;99.90
15357;DHT22;7778;48.792;9.260;2023-03-25T15:32:51;12.70;99.90
15357;DHT22;7778;48.792;9.260;2023-03-25T15:35:55;12.70;99.90
15357;DHT22;7778;48.792;9.260;2023-03-25T15:39:05;12.80;99.90
15357;DHT22;7778;48.792;9.260;2023-03-25T15:42:14;12.70;99.90
15357;DHT22;7778;48.792;9.260;2023-03-25T15:45:25;12.70;99.90
15357;DHT22;7778;48.792;9.260;2023-03-25T15:48:26;12.80;99.90
15357;DHT22;7778;48.792;9.260;2023-03-25T15:51:30;12.80;99.90
15357;DHT22;7778;48.792;9.260;2023-03-25T15:54:35;12.80;99.90
15357;DHT22;7778;48.792;9.260;2023-03-25T15:57:33;12.80;99.90
15357;DHT22;7778;48.792;9.260;2023-03-25T16:00:25;12.80;99.90
15357;DHT22;7778;48.792;9.260;2023-03-25T16:03:14;12.70;99.90
15357;DHT22;7778;48.792;9.260;2023-03-25T16:06:03;12.70;99.90
15357;DHT22;7778;48.792;9.260;2023-03-25T16:08:50;12.80;99.90
15357;DHT22;7778;48.792;9.260;2023-03-25T16:11:40;12.80;99.90
15357;DHT22;7778;48.792;9.260;2023-03-25T16:14:30;12.80;99.90
15357;DHT22;7778;48.792;9.260;2023-03-25T16:17:18;12.80;99.90
15357;DHT22;7778;48.792;9.260;2023-03-25T16:20:06;12.80;99.90
15357;DHT22;7778;48.792;9.260;2023-03-25T16:22:59;12.60;99.90
15357;DHT22;7778;48.792;9.260;2023-03-25T16:25:47;12.80;99.90
15357;DHT22;7778;48.792;9.260;2023-03-25T16:28:38;13.00;99.90
15357;DHT22;7778;48.792;9.260;2023-03-25T16:31:32;12.90;99.90
15357;DHT22;7778;48.792;9.260;2023-03-25T16:34:25;12.60;99.90
15357;DHT22;7778;48.792;9.260;2023-03-25T16:37:13;12.40;99.90
15357;DHT22;7778;48.792;9.260;2023-03-25T16:40:04;12.20;99.90
15357;DHT22;7778;48.792;9.260;2023-03-25T16:42:52;12.10;99.90
15357;DHT22;7778;48.792;9.260;2023-03-25T16:45:38;12.00;99.90
15357;DHT22;7778;48.792;9.260;2023-03-25T16:48:28;11.90;99.90
15357;DHT22;7778;48.792;9.260;2023-03-25T16:51:17;12.00;99.90
15357;DHT22;7778;48.792;9.260;2023-03-25T16:54:08;11.90;99.90
15357;DHT22;7778;48.792;9.260;2023-03-25T16:56:56;11.80;99.90
15357;DHT22;7778;48.792;9.260;2023-03-25T16:59:45;11.80;99.90
15357;DHT22;7778;48.792;9.260;2023-03-25T17:02:38;11.70;99.90
15357;DHT22;7778;48.792;9.260;2023-03-25T17:05:28;11.70;99.90
15357;DHT22;7778;48.792;9.260;2023-03-25T17:08:15;11.70;99.90
15357;DHT22;7778;48.792;9.260;2023-03-25T17:11:02;11.80;99.90
15357;DHT22;7778;48.792;9.260;2023-03-25T17:13:59;11.70;99.90
15357;DHT22;7778;48.792;9.260;2023-03-25T17:16:47;11.60;99.90
15357;DHT22;7778;48.792;9.260;2023-03-25T17:19:37;11.70;99.90
15357;DHT22;7778;48.792;9.260;2023-03-25T17:22:33;11.60;99.90
15357;DHT22;7778;48.792;9.260;2023-03-25T17:25:24;11.60;99.90
15357;DHT22;7778;48.792;9.260;2023-03-25T17:28:24;11.60;99.90
15357;DHT22;7778;48.792;9.260;2023-03-25T17:31:17;11.50;99.90
15357;DHT22;7778;48.792;9.260;2023-03-25T17:34:11;11.50;99.90
15357;DHT22;7778;48.792;9.260;2023-03-25T17:37:00;11.40;99.90
15357;DHT22;7778;48.792;9.260;2023-03-25T17:39:50;11.40;99.90
15357;DHT22;7778;48.792;9.260;2023-03-25T17:42:37;11.30;99.90
15357;DHT22;7778;48.792;9.260;2023-03-25T17:45:24;11.30;99.90
15357;DHT22;7778;48.792;9.260;2023-03-25T17:48:14;11.40;99.90
15357;DHT22;7778;48.792;9.260;2023-03-25T17:51:01;11.20;99.90
15357;DHT22;7778;48.792;9.260;2023-03-25T17:53:47;11.20;99.90
15357;DHT22;7778;48.792;9.260;2023-03-25T17:56:35;11.10;99.90
15357;DHT22;7778;48.792;9.260;2023-03-25T17:59:23;11.00;99.90
15357;DHT22;7778;48.792;9.260;2023-03-25T18:02:11;11.00;99.90
15357;DHT22;7778;48.792;9.260;2023-03-25T18:04:57;11.10;99.90
15357;DHT22;7778;48.792;9.260;2023-03-25T18:07:44;11.20;99.90
15357;DHT22;7778;48.792;9.260;2023-03-25T18:10:30;11.00;99.90
15357;DHT22;7778;48.792;9.260;2023-03-25T18:13:17;11.10;99.90
15357;DHT22;7778;48.792;9.260;2023-03-25T18:16:05;11.10;99.90
15357;DHT22;7778;48.792;9.260;2023-03-25T18:18:51;11.10;99.90
15357;DHT22;7778;48.792;9.260;2023-03-25T18:21:37;11.10;99.90
15357;DHT22;7778;48.792;9.260;2023-03-25T18:24:22;11.10;99.90
15357;DHT22;7778;48.792;9.260;2023-03-25T18:27:09;11.30;99.90
15357;DHT22;7778;48.792;9.260;2023-03-25T18:29:58;11.20;99.90
15357;DHT22;7778;48.792;9.260;2023-03-25T18:32:44;11.10;99.90
15357;DHT22;7778;48.792;9.260;2023-03-25T18:35:30;10.90;99.90
15357;DHT22;7778;48.792;9.260;2023-03-25T18:38:17;10.90;99.90